sensor_id;sensor_type;location;lat;lon;timestamp;P1;durP1;ratioP1;P2;durP2;ratioP2
64011;SDS011;50211;52.768;12.124;2023-04-25T00:01:54;8.67;;;2.67;;
64011;SDS011;50211;52.768;12.124;2023-04-25T00:04:21;9.13;;;2.77;;
64011;SDS011;50211;52.768;12.124;2023-04-25T00:06:46;7.50;;;2.70;;
64011;SDS011;50211;52.768;12.124;2023-04-25T00:09:12;8.67;;;3.00;;
64011;SDS011;50211;52.768;12.124;2023-04-25T00:11:38;6.97;;;2.37;;
64011;SDS011;50211;52.768;12.124;2023-04-25T00:14:04;4.83;;;2.30;;
64011;SDS011;50211;52.768;12.124;2023-04-25T00:16:31;4.90;;;3.00;;
64011;SDS011;50211;52.768;12.124;2023-04-25T00:18:59;8.17;;;2.80;;
64011;SDS011;50211;52.768;12.124;2023-04-25T00:21:24;7.07;;;2.83;;
64011;SDS011;50211;52.768;12.124;2023-04-25T00:23:52;8.43;;;3.03;;
64011;SDS011;50211;52.768;12.124;2023-04-25T00:26:17;7.83;;;2.70;;
64011;SDS011;50211;52.768;12.124;2023-04-25T00:28:43;8.53;;;2.83;;
64011;SDS011;50211;52.768;12.124;2023-04-25T00:31:08;6.17;;;2.53;;
64011;SDS011;50211;52.768;12.124;2023-04-25T00:33:34;7.97;;;3.03;;
64011;SDS011;50211;52.768;12.124;2023-04-25T00:36:00;11.30;;;2.73;;
64011;SDS011;50211;52.768;12.124;2023-04-25T00:38:25;9.10;;;2.83;;
64011;SDS011;50211;52.768;12.124;2023-04-25T00:40:51;8.43;;;2.60;;
64011;SDS011;50211;52.768;12.124;2023-04-25T00:43:17;4.33;;;2.33;;
64011;SDS011;50211;52.768;12.124;2023-04-25T00:45:43;4.63;;;2.60;;
64011;SDS011;50211;52.768;12.124;2023-04-25T00:48:11;5.33;;;2.20;;
64011;SDS011;50211;52.768;12.124;2023-04-25T00:50:38;11.70;;;2.70;;
64011;SDS011;50211;52.768;12.124;2023-04-25T00:53:05;12.73;;;2.70;;
64011;SDS011;50211;52.768;12.124;2023-04-25T00:55:31;7.57;;;2.47;;
64011;SDS011;50211;52.768;12.124;2023-04-25T00:57:59;7.97;;;2.93;;
64011;SDS011;50211;52.768;12.124;2023-04-25T01:00:25;5.23;;;2.57;;
64011;SDS011;50211;52.768;12.124;2023-04-25T01:02:51;5.13;;;2.83;;
64011;SDS011;50211;52.768;12.124;2023-04-25T01:05:17;6.97;;;2.80;;
64011;SDS011;50211;52.768;12.124;2023-04-25T01:07:43;6.63;;;2.77;;
64011;SDS011;50211;52.768;12.124;2023-04-25T01:10:10;4.80;;;2.87;;
64011;SDS011;50211;52.768;12.124;2023-04-25T01:12:35;5.37;;;2.10;;
64011;SDS011;50211;52.768;12.124;2023-04-25T01:15:01;8.50;;;3.17;;
64011;SDS011;50211;52.768;12.124;2023-04-25T01:17:27;6.80;;;2.90;;
64011;SDS011;50211;52.768;12.124;2023-04-25T01:19:54;10.40;;;3.07;;
64011;SDS011;50211;52.768;12.124;2023-04-25T01:22:19;11.17;;;2.60;;
64011;SDS011;50211;52.768;12.124;2023-04-25T01:24:45;5.50;;;3.00;;
64011;SDS011;50211;52.768;12.124;2023-04-25T01:27:11;4.67;;;2.67;;
64011;SDS011;50211;52.768;12.124;2023-04-25T01:29:37;10.20;;;2.70;;
64011;SDS011;50211;52.768;12.124;2023-04-25T01:32:03;7.70;;;2.87;;
64011;SDS011;50211;52.768;12.124;2023-04-25T01:34:30;4.20;;;2.83;;
64011;SDS011;50211;52.768;12.124;2023-04-25T01:36:55;5.73;;;2.73;;
64011;SDS011;50211;52.768;12.124;2023-04-25T01:39:21;9.13;;;3.00;;
64011;SDS011;50211;52.768;12.124;2023-04-25T01:41:47;6.97;;;2.70;;
64011;SDS011;50211;52.768;12.124;2023-04-25T01:44:13;5.33;;;2.40;;
64011;SDS011;50211;52.768;12.124;2023-04-25T01:46:39;6.70;;;2.23;;
64011;SDS011;50211;52.768;12.124;2023-04-25T01:49:04;6.50;;;2.93;;
64011;SDS011;50211;52.768;12.124;2023-04-25T01:51:30;7.57;;;2.77;;
64011;SDS011;50211;52.768;12.124;2023-04-25T01:53:56;4.60;;;2.43;;
64011;SDS011;50211;52.768;12.124;2023-04-25T01:56:22;12.97;;;3.07;;
64011;SDS011;50211;52.768;12.124;2023-04-25T01:58:48;5.67;;;2.17;;
64011;SDS011;50211;52.768;12.124;2023-04-25T02:01:13;7.50;;;3.03;;
64011;SDS011;50211;52.768;12.124;2023-04-25T02:03:39;8.47;;;3.00;;
64011;SDS011;50211;52.768;12.124;2023-04-25T02:06:05;10.90;;;3.27;;
64011;SDS011;50211;52.768;12.124;2023-04-25T02:08:30;3.53;;;2.43;;
64011;SDS011;50211;52.768;12.124;2023-04-25T02:10:56;5.83;;;3.03;;
64011;SDS011;50211;52.768;12.124;2023-04-25T02:13:22;6.70;;;2.27;;
64011;SDS011;50211;52.768;12.124;2023-04-25T02:15:47;7.30;;;2.90;;
64011;SDS011;50211;52.768;12.124;2023-04-25T02:18:13;8.00;;;3.40;;
64011;SDS011;50211;52.768;12.124;2023-04-25T02:20:40;4.60;;;2.07;;
64011;SDS011;50211;52.768;12.124;2023-04-25T02:23:06;7.73;;;2.67;;
64011;SDS011;50211;52.768;12.124;2023-04-25T02:25:32;3.97;;;2.23;;
64011;SDS011;50211;52.768;12.124;2023-04-25T02:27:57;8.33;;;2.53;;
64011;SDS011;50211;52.768;12.124;2023-04-25T02:30:23;8.73;;;2.73;;
64011;SDS011;50211;52.768;12.124;2023-04-25T02:32:48;12.27;;;2.93;;
64011;SDS011;50211;52.768;12.124;2023-04-25T02:35:14;5.10;;;2.53;;
64011;SDS011;50211;52.768;12.124;2023-04-25T02:37:40;7.63;;;2.57;;
64011;SDS011;50211;52.768;12.124;2023-04-25T02:40:07;3.20;;;2.33;;
64011;SDS011;50211;52.768;12.124;2023-04-25T02:42:33;5.03;;;2.97;;
64011;SDS011;50211;52.768;12.124;2023-04-25T02:44:58;6.47;;;2.50;;
64011;SDS011;50211;52.768;12.124;2023-04-25T02:47:24;3.43;;;2.33;;
64011;SDS011;50211;52.768;12.124;2023-04-25T02:49:49;6.20;;;2.67;;
64011;SDS011;50211;52.768;12.124;2023-04-25T02:52:15;8.33;;;2.50;;
64011;SDS011;50211;52.768;12.124;2023-04-25T02:54:41;3.97;;;2.20;;
64011;SDS011;50211;52.768;12.124;2023-04-25T02:57:06;9.60;;;2.70;;
64011;SDS011;50211;52.768;12.124;2023-04-25T02:59:32;7.63;;;2.43;;
64011;SDS011;50211;52.768;12.124;2023-04-25T03:01:58;4.80;;;2.70;;
64011;SDS011;50211;52.768;12.124;2023-04-25T03:04:24;7.47;;;2.80;;
64011;SDS011;50211;52.768;12.124;2023-04-25T03:06:50;6.50;;;2.60;;
64011;SDS011;50211;52.768;12.124;2023-04-25T03:09:15;10.90;;;2.60;;
64011;SDS011;50211;52.768;12.124;2023-04-25T03:11:41;8.33;;;2.70;;
64011;SDS011;50211;52.768;12.124;2023-04-25T03:14:07;6.97;;;3.10;;
64011;SDS011;50211;52.768;12.124;2023-04-25T03:16:32;5.23;;;2.40;;
64011;SDS011;50211;52.768;12.124;2023-04-25T03:18:58;7.10;;;2.90;;
64011;SDS011;50211;52.768;12.124;2023-04-25T03:21:24;6.30;;;3.00;;
64011;SDS011;50211;52.768;12.124;2023-04-25T03:23:50;6.53;;;2.80;;
64011;SDS011;50211;52.768;12.124;2023-04-25T03:26:15;6.20;;;2.57;;
64011;SDS011;50211;52.768;12.124;2023-04-25T03:28:41;8.50;;;2.87;;
64011;SDS011;50211;52.768;12.124;2023-04-25T03:31:06;14.20;;;3.03;;
64011;SDS011;50211;52.768;12.124;2023-04-25T03:33:32;7.73;;;3.03;;
64011;SDS011;50211;52.768;12.124;2023-04-25T03:35:57;5.27;;;2.60;;
64011;SDS011;50211;52.768;12.124;2023-04-25T03:38:23;6.60;;;2.90;;
64011;SDS011;50211;52.768;12.124;2023-04-25T03:40:49;6.23;;;2.90;;
64011;SDS011;50211;52.768;12.124;2023-04-25T03:43:15;6.63;;;3.40;;
64011;SDS011;50211;52.768;12.124;2023-04-25T03:45:41;8.90;;;3.87;;
64011;SDS011;50211;52.768;12.124;2023-04-25T03:48:07;4.50;;;2.80;;
64011;SDS011;50211;52.768;12.124;2023-04-25T03:50:32;5.70;;;3.20;;
64011;SDS011;50211;52.768;12.124;2023-04-25T03:52:58;10.17;;;3.60;;
64011;SDS011;50211;52.768;12.124;2023-04-25T03:55:24;12.10;;;3.23;;
64011;SDS011;50211;52.768;12.124;2023-04-25T03:57:49;6.07;;;2.83;;
64011;SDS011;50211;52.768;12.124;2023-04-25T04:00:15;13.00;;;3.10;;
64011;SDS011;50211;52.768;12.124;2023-04-25T04:02:40;7.90;;;3.30;;
64011;SDS011;50211;52.768;12.124;2023-04-25T04:05:06;5.33;;;3.10;;
64011;SDS011;50211;52.768;12.124;2023-04-25T04:07:32;6.27;;;3.20;;
64011;SDS011;50211;52.768;12.124;2023-04-25T04:09:58;8.93;;;3.20;;
64011;SDS011;50211;52.768;12.124;2023-04-25T04:12:24;7.50;;;3.07;;
64011;SDS011;50211;52.768;12.124;2023-04-25T04:14:49;11.93;;;3.47;;
64011;SDS011;50211;52.768;12.124;2023-04-25T04:17:15;11.33;;;3.70;;
64011;SDS011;50211;52.768;12.124;2023-04-25T04:19:40;10.53;;;3.37;;
64011;SDS011;50211;52.768;12.124;2023-04-25T04:22:06;9.47;;;3.53;;
64011;SDS011;50211;52.768;12.124;2023-04-25T04:24:32;27.90;;;21.33;;
64011;SDS011;50211;52.768;12.124;2023-04-25T04:26:57;15.37;;;8.57;;
64011;SDS011;50211;52.768;12.124;2023-04-25T04:29:23;16.57;;;8.90;;
64011;SDS011;50211;52.768;12.124;2023-04-25T04:31:49;8.47;;;3.47;;
64011;SDS011;50211;52.768;12.124;2023-04-25T04:34:16;9.10;;;3.63;;
64011;SDS011;50211;52.768;12.124;2023-04-25T04:36:43;5.30;;;3.60;;
64011;SDS011;50211;52.768;12.124;2023-04-25T04:39:11;11.57;;;4.97;;
64011;SDS011;50211;52.768;12.124;2023-04-25T04:41:37;7.57;;;3.60;;
64011;SDS011;50211;52.768;12.124;2023-04-25T04:44:02;12.23;;;4.17;;
64011;SDS011;50211;52.768;12.124;2023-04-25T04:46:28;10.03;;;4.07;;
64011;SDS011;50211;52.768;12.124;2023-04-25T04:48:55;9.63;;;4.13;;
64011;SDS011;50211;52.768;12.124;2023-04-25T04:51:21;9.33;;;3.70;;
64011;SDS011;50211;52.768;12.124;2023-04-25T04:53:46;7.83;;;5.03;;
64011;SDS011;50211;52.768;12.124;2023-04-25T04:56:12;8.53;;;4.60;;
64011;SDS011;50211;52.768;12.124;2023-04-25T04:58:37;10.13;;;4.60;;
64011;SDS011;50211;52.768;12.124;2023-04-25T05:01:03;8.17;;;4.37;;
64011;SDS011;50211;52.768;12.124;2023-04-25T05:03:28;11.43;;;3.67;;
64011;SDS011;50211;52.768;12.124;2023-04-25T05:05:54;10.97;;;4.53;;
64011;SDS011;50211;52.768;12.124;2023-04-25T05:08:20;9.60;;;4.57;;
64011;SDS011;50211;52.768;12.124;2023-04-25T05:10:45;11.57;;;3.93;;
64011;SDS011;50211;52.768;12.124;2023-04-25T05:13:11;11.97;;;3.63;;
64011;SDS011;50211;52.768;12.124;2023-04-25T05:15:36;7.27;;;3.87;;
64011;SDS011;50211;52.768;12.124;2023-04-25T05:18:02;8.57;;;4.10;;
64011;SDS011;50211;52.768;12.124;2023-04-25T05:20:27;12.13;;;3.83;;
64011;SDS011;50211;52.768;12.124;2023-04-25T05:22:53;18.90;;;3.80;;
64011;SDS011;50211;52.768;12.124;2023-04-25T05:25:18;15.67;;;4.70;;
64011;SDS011;50211;52.768;12.124;2023-04-25T05:27:44;9.87;;;3.60;;
64011;SDS011;50211;52.768;12.124;2023-04-25T05:30:09;17.13;;;4.00;;
64011;SDS011;50211;52.768;12.124;2023-04-25T05:32:35;13.13;;;3.13;;
64011;SDS011;50211;52.768;12.124;2023-04-25T05:35:01;15.73;;;3.13;;
64011;SDS011;50211;52.768;12.124;2023-04-25T05:37:27;12.33;;;2.80;;
64011;SDS011;50211;52.768;12.124;2023-04-25T05:39:55;12.87;;;4.67;;
64011;SDS011;50211;52.768;12.124;2023-04-25T05:42:20;17.67;;;3.70;;
64011;SDS011;50211;52.768;12.124;2023-04-25T05:44:46;15.87;;;3.90;;
64011;SDS011;50211;52.768;12.124;2023-04-25T05:47:12;20.33;;;5.10;;
64011;SDS011;50211;52.768;12.124;2023-04-25T05:49:37;18.10;;;4.57;;
64011;SDS011;50211;52.768;12.124;2023-04-25T05:52:03;11.47;;;4.00;;
64011;SDS011;50211;52.768;12.124;2023-04-25T05:54:28;10.23;;;4.40;;
64011;SDS011;50211;52.768;12.124;2023-04-25T05:56:55;14.30;;;3.63;;
64011;SDS011;50211;52.768;12.124;2023-04-25T05:59:21;12.63;;;3.30;;
64011;SDS011;50211;52.768;12.124;2023-04-25T06:01:46;12.37;;;2.67;;
64011;SDS011;50211;52.768;12.124;2023-04-25T06:04:12;14.70;;;2.80;;
64011;SDS011;50211;52.768;12.124;2023-04-25T06:06:37;10.63;;;2.80;;
64011;SDS011;50211;52.768;12.124;2023-04-25T06:09:03;21.43;;;2.97;;
64011;SDS011;50211;52.768;12.124;2023-04-25T06:11:28;13.30;;;2.07;;
64011;SDS011;50211;52.768;12.124;2023-04-25T06:13:54;15.03;;;3.30;;
64011;SDS011;50211;52.768;12.124;2023-04-25T06:16:20;16.10;;;3.10;;
64011;SDS011;50211;52.768;12.124;2023-04-25T06:18:45;9.50;;;2.60;;
64011;SDS011;50211;52.768;12.124;2023-04-25T06:21:11;13.47;;;2.87;;
64011;SDS011;50211;52.768;12.124;2023-04-25T06:23:36;12.57;;;2.60;;
64011;SDS011;50211;52.768;12.124;2023-04-25T06:26:02;9.67;;;2.27;;
64011;SDS011;50211;52.768;12.124;2023-04-25T06:28:28;18.03;;;3.67;;
64011;SDS011;50211;52.768;12.124;2023-04-25T06:30:53;15.33;;;2.90;;
64011;SDS011;50211;52.768;12.124;2023-04-25T06:33:19;15.17;;;2.50;;
64011;SDS011;50211;52.768;12.124;2023-04-25T06:35:46;10.53;;;2.43;;
64011;SDS011;50211;52.768;12.124;2023-04-25T06:38:11;15.03;;;2.53;;
64011;SDS011;50211;52.768;12.124;2023-04-25T06:40:37;8.73;;;2.17;;
64011;SDS011;50211;52.768;12.124;2023-04-25T06:43:03;10.57;;;2.33;;
64011;SDS011;50211;52.768;12.124;2023-04-25T06:45:28;7.83;;;3.03;;
64011;SDS011;50211;52.768;12.124;2023-04-25T06:47:54;14.60;;;2.70;;
64011;SDS011;50211;52.768;12.124;2023-04-25T06:50:19;11.27;;;2.40;;
64011;SDS011;50211;52.768;12.124;2023-04-25T06:52:45;11.73;;;2.20;;
64011;SDS011;50211;52.768;12.124;2023-04-25T06:55:10;10.37;;;2.17;;
64011;SDS011;50211;52.768;12.124;2023-04-25T06:57:36;8.80;;;2.17;;
64011;SDS011;50211;52.768;12.124;2023-04-25T07:00:02;9.37;;;2.03;;
64011;SDS011;50211;52.768;12.124;2023-04-25T07:02:30;14.30;;;2.60;;
64011;SDS011;50211;52.768;12.124;2023-04-25T07:04:56;10.33;;;2.10;;
64011;SDS011;50211;52.768;12.124;2023-04-25T07:07:24;11.03;;;2.10;;
64011;SDS011;50211;52.768;12.124;2023-04-25T07:09:50;20.10;;;2.50;;
64011;SDS011;50211;52.768;12.124;2023-04-25T07:12:16;19.43;;;2.93;;
64011;SDS011;50211;52.768;12.124;2023-04-25T07:14:41;8.83;;;2.27;;
64011;SDS011;50211;52.768;12.124;2023-04-25T07:17:06;17.47;;;2.07;;
64011;SDS011;50211;52.768;12.124;2023-04-25T07:19:32;18.80;;;2.47;;
64011;SDS011;50211;52.768;12.124;2023-04-25T07:21:58;12.97;;;2.30;;
64011;SDS011;50211;52.768;12.124;2023-04-25T07:24:23;6.63;;;1.70;;
64011;SDS011;50211;52.768;12.124;2023-04-25T07:26:49;8.83;;;2.00;;
64011;SDS011;50211;52.768;12.124;2023-04-25T07:29:15;8.70;;;2.00;;
64011;SDS011;50211;52.768;12.124;2023-04-25T07:31:40;10.60;;;2.63;;
64011;SDS011;50211;52.768;12.124;2023-04-25T07:34:06;8.27;;;1.93;;
64011;SDS011;50211;52.768;12.124;2023-04-25T07:36:32;10.53;;;2.20;;
64011;SDS011;50211;52.768;12.124;2023-04-25T07:38:57;14.30;;;2.33;;
64011;SDS011;50211;52.768;12.124;2023-04-25T07:41:23;11.67;;;1.60;;
64011;SDS011;50211;52.768;12.124;2023-04-25T07:43:48;23.07;;;2.77;;
64011;SDS011;50211;52.768;12.124;2023-04-25T07:46:14;7.10;;;2.30;;
64011;SDS011;50211;52.768;12.124;2023-04-25T07:48:39;17.30;;;2.37;;
64011;SDS011;50211;52.768;12.124;2023-04-25T07:51:05;4.93;;;1.90;;
64011;SDS011;50211;52.768;12.124;2023-04-25T07:53:32;12.13;;;2.50;;
64011;SDS011;50211;52.768;12.124;2023-04-25T07:55:59;12.13;;;2.20;;
64011;SDS011;50211;52.768;12.124;2023-04-25T07:58:25;10.67;;;2.13;;
64011;SDS011;50211;52.768;12.124;2023-04-25T08:00:50;8.13;;;2.17;;
64011;SDS011;50211;52.768;12.124;2023-04-25T08:03:16;8.97;;;2.40;;
64011;SDS011;50211;52.768;12.124;2023-04-25T08:05:41;5.07;;;1.53;;
64011;SDS011;50211;52.768;12.124;2023-04-25T08:08:07;6.80;;;1.83;;
64011;SDS011;50211;52.768;12.124;2023-04-25T08:10:33;4.80;;;1.57;;
64011;SDS011;50211;52.768;12.124;2023-04-25T08:12:59;9.70;;;1.40;;
64011;SDS011;50211;52.768;12.124;2023-04-25T08:15:24;13.43;;;1.77;;
64011;SDS011;50211;52.768;12.124;2023-04-25T08:17:51;4.13;;;1.37;;
64011;SDS011;50211;52.768;12.124;2023-04-25T08:20:16;9.20;;;2.17;;
64011;SDS011;50211;52.768;12.124;2023-04-25T08:22:42;7.87;;;1.63;;
64011;SDS011;50211;52.768;12.124;2023-04-25T08:25:07;11.10;;;1.83;;
64011;SDS011;50211;52.768;12.124;2023-04-25T08:27:33;6.07;;;1.27;;
64011;SDS011;50211;52.768;12.124;2023-04-25T08:29:59;7.57;;;1.70;;
64011;SDS011;50211;52.768;12.124;2023-04-25T08:32:24;11.07;;;1.83;;
64011;SDS011;50211;52.768;12.124;2023-04-25T08:34:50;13.63;;;2.33;;
64011;SDS011;50211;52.768;12.124;2023-04-25T08:37:18;5.47;;;1.50;;
64011;SDS011;50211;52.768;12.124;2023-04-25T08:39:45;12.10;;;1.80;;
64011;SDS011;50211;52.768;12.124;2023-04-25T08:42:11;5.73;;;1.27;;
64011;SDS011;50211;52.768;12.124;2023-04-25T08:44:37;11.07;;;2.20;;
64011;SDS011;50211;52.768;12.124;2023-04-25T08:47:03;6.27;;;1.23;;
64011;SDS011;50211;52.768;12.124;2023-04-25T08:49:31;6.97;;;1.50;;
64011;SDS011;50211;52.768;12.124;2023-04-25T08:51:59;4.70;;;1.93;;
64011;SDS011;50211;52.768;12.124;2023-04-25T08:54:26;6.37;;;1.33;;
64011;SDS011;50211;52.768;12.124;2023-04-25T08:56:54;5.27;;;1.67;;
64011;SDS011;50211;52.768;12.124;2023-04-25T08:59:22;4.60;;;1.30;;
64011;SDS011;50211;52.768;12.124;2023-04-25T09:01:48;8.13;;;1.50;;
64011;SDS011;50211;52.768;12.124;2023-04-25T09:04:14;7.43;;;1.73;;
64011;SDS011;50211;52.768;12.124;2023-04-25T09:06:40;6.23;;;1.87;;
64011;SDS011;50211;52.768;12.124;2023-04-25T09:09:07;7.77;;;1.60;;
64011;SDS011;50211;52.768;12.124;2023-04-25T09:11:34;8.07;;;2.47;;
64011;SDS011;50211;52.768;12.124;2023-04-25T09:14:13;4.20;;;1.30;;
64011;SDS011;50211;52.768;12.124;2023-04-25T09:19:24;6.33;;;1.60;;
64011;SDS011;50211;52.768;12.124;2023-04-25T09:21:54;5.03;;;1.67;;
64011;SDS011;50211;52.768;12.124;2023-04-25T09:24:38;5.67;;;1.50;;
64011;SDS011;50211;52.768;12.124;2023-04-25T09:27:06;6.00;;;1.50;;
64011;SDS011;50211;52.768;12.124;2023-04-25T09:29:42;5.23;;;1.57;;
64011;SDS011;50211;52.768;12.124;2023-04-25T09:32:12;13.73;;;2.93;;
64011;SDS011;50211;52.768;12.124;2023-04-25T09:34:43;7.13;;;1.50;;
64011;SDS011;50211;52.768;12.124;2023-04-25T09:37:13;5.53;;;1.47;;
64011;SDS011;50211;52.768;12.124;2023-04-25T09:39:44;4.27;;;1.30;;
64011;SDS011;50211;52.768;12.124;2023-04-25T09:42:12;3.37;;;1.40;;
64011;SDS011;50211;52.768;12.124;2023-04-25T09:44:41;5.70;;;1.20;;
64011;SDS011;50211;52.768;12.124;2023-04-25T09:47:12;6.03;;;1.60;;
64011;SDS011;50211;52.768;12.124;2023-04-25T09:49:42;6.83;;;1.47;;
64011;SDS011;50211;52.768;12.124;2023-04-25T09:52:09;5.90;;;1.43;;
64011;SDS011;50211;52.768;12.124;2023-04-25T09:54:45;4.50;;;1.60;;
64011;SDS011;50211;52.768;12.124;2023-04-25T09:57:13;7.83;;;1.50;;
64011;SDS011;50211;52.768;12.124;2023-04-25T09:59:44;7.00;;;1.80;;
64011;SDS011;50211;52.768;12.124;2023-04-25T10:02:12;7.50;;;1.43;;
64011;SDS011;50211;52.768;12.124;2023-04-25T10:04:44;9.53;;;1.30;;
64011;SDS011;50211;52.768;12.124;2023-04-25T10:07:13;6.27;;;2.17;;
64011;SDS011;50211;52.768;12.124;2023-04-25T10:09:40;6.00;;;1.47;;
64011;SDS011;50211;52.768;12.124;2023-04-25T10:12:07;11.33;;;2.77;;
64011;SDS011;50211;52.768;12.124;2023-04-25T10:14:33;9.87;;;1.67;;
64011;SDS011;50211;52.768;12.124;2023-04-25T10:16:59;7.17;;;1.60;;
64011;SDS011;50211;52.768;12.124;2023-04-25T10:19:26;7.60;;;1.63;;
64011;SDS011;50211;52.768;12.124;2023-04-25T10:24:26;10.60;;;1.97;;
64011;SDS011;50211;52.768;12.124;2023-04-25T10:26:52;5.47;;;1.70;;
64011;SDS011;50211;52.768;12.124;2023-04-25T10:29:21;14.17;;;1.70;;
64011;SDS011;50211;52.768;12.124;2023-04-25T10:31:50;8.43;;;1.40;;
64011;SDS011;50211;52.768;12.124;2023-04-25T10:34:16;9.07;;;1.70;;
64011;SDS011;50211;52.768;12.124;2023-04-25T10:36:42;8.27;;;1.63;;
64011;SDS011;50211;52.768;12.124;2023-04-25T10:39:13;9.57;;;1.93;;
64011;SDS011;50211;52.768;12.124;2023-04-25T10:41:48;7.63;;;1.80;;
64011;SDS011;50211;52.768;12.124;2023-04-25T10:44:27;7.33;;;1.93;;
64011;SDS011;50211;52.768;12.124;2023-04-25T10:46:57;4.80;;;1.63;;
64011;SDS011;50211;52.768;12.124;2023-04-25T10:57:55;9.43;;;2.00;;
64011;SDS011;50211;52.768;12.124;2023-04-25T11:00:05;7.67;;;2.20;;
64011;SDS011;50211;52.768;12.124;2023-04-25T11:02:31;6.90;;;1.47;;
64011;SDS011;50211;52.768;12.124;2023-04-25T11:04:57;6.03;;;1.83;;
64011;SDS011;50211;52.768;12.124;2023-04-25T11:07:23;6.53;;;1.97;;
64011;SDS011;50211;52.768;12.124;2023-04-25T11:09:56;6.00;;;1.00;;
64011;SDS011;50211;52.768;12.124;2023-04-25T11:12:22;4.77;;;1.10;;
64011;SDS011;50211;52.768;12.124;2023-04-25T11:14:49;5.87;;;1.60;;
64011;SDS011;50211;52.768;12.124;2023-04-25T11:17:15;7.80;;;1.30;;
64011;SDS011;50211;52.768;12.124;2023-04-25T11:19:40;4.70;;;1.33;;
64011;SDS011;50211;52.768;12.124;2023-04-25T11:22:06;9.03;;;1.30;;
64011;SDS011;50211;52.768;12.124;2023-04-25T11:24:33;6.17;;;1.30;;
64011;SDS011;50211;52.768;12.124;2023-04-25T11:27:00;12.03;;;1.53;;
64011;SDS011;50211;52.768;12.124;2023-04-25T11:29:31;5.63;;;1.50;;
64011;SDS011;50211;52.768;12.124;2023-04-25T11:31:57;6.23;;;1.40;;
64011;SDS011;50211;52.768;12.124;2023-04-25T11:34:24;5.87;;;1.47;;
64011;SDS011;50211;52.768;12.124;2023-04-25T11:36:50;5.27;;;1.20;;
64011;SDS011;50211;52.768;12.124;2023-04-25T11:39:17;5.70;;;1.60;;
64011;SDS011;50211;52.768;12.124;2023-04-25T11:41:43;5.33;;;1.23;;
64011;SDS011;50211;52.768;12.124;2023-04-25T11:44:09;4.83;;;1.13;;
64011;SDS011;50211;52.768;12.124;2023-04-25T11:46:34;7.73;;;1.40;;
64011;SDS011;50211;52.768;12.124;2023-04-25T11:49:00;3.13;;;1.13;;
64011;SDS011;50211;52.768;12.124;2023-04-25T11:51:26;1.27;;;0.90;;
64011;SDS011;50211;52.768;12.124;2023-04-25T11:53:52;5.30;;;1.30;;
64011;SDS011;50211;52.768;12.124;2023-04-25T11:56:17;6.70;;;1.33;;
64011;SDS011;50211;52.768;12.124;2023-04-25T12:01:32;7.00;;;1.20;;
64011;SDS011;50211;52.768;12.124;2023-04-25T12:04:12;4.33;;;1.27;;
64011;SDS011;50211;52.768;12.124;2023-04-25T12:06:39;2.63;;;0.90;;
64011;SDS011;50211;52.768;12.124;2023-04-25T12:09:07;4.50;;;1.03;;
64011;SDS011;50211;52.768;12.124;2023-04-25T12:11:47;2.80;;;0.83;;
64011;SDS011;50211;52.768;12.124;2023-04-25T12:14:30;4.60;;;1.20;;
64011;SDS011;50211;52.768;12.124;2023-04-25T12:16:58;3.07;;;1.60;;
64011;SDS011;50211;52.768;12.124;2023-04-25T12:19:25;6.13;;;1.10;;
64011;SDS011;50211;52.768;12.124;2023-04-25T12:21:51;7.63;;;1.37;;
64011;SDS011;50211;52.768;12.124;2023-04-25T12:24:24;6.10;;;1.47;;
64011;SDS011;50211;52.768;12.124;2023-04-25T12:26:53;3.30;;;1.10;;
64011;SDS011;50211;52.768;12.124;2023-04-25T12:29:25;5.13;;;1.23;;
64011;SDS011;50211;52.768;12.124;2023-04-25T12:31:52;7.13;;;1.60;;
64011;SDS011;50211;52.768;12.124;2023-04-25T12:34:19;7.40;;;1.40;;
64011;SDS011;50211;52.768;12.124;2023-04-25T12:36:47;4.37;;;1.43;;
64011;SDS011;50211;52.768;12.124;2023-04-25T12:39:15;7.73;;;1.00;;
64011;SDS011;50211;52.768;12.124;2023-04-25T12:41:45;4.93;;;1.00;;
64011;SDS011;50211;52.768;12.124;2023-04-25T12:44:11;1.95;;;0.98;;
64011;SDS011;50211;52.768;12.124;2023-04-25T12:46:37;5.47;;;0.80;;
64011;SDS011;50211;52.768;12.124;2023-04-25T12:49:04;3.10;;;1.48;;
64011;SDS011;50211;52.768;12.124;2023-04-25T12:51:30;3.83;;;1.20;;
64011;SDS011;50211;52.768;12.124;2023-04-25T12:53:57;6.47;;;1.40;;
64011;SDS011;50211;52.768;12.124;2023-04-25T12:56:23;5.03;;;1.10;;
64011;SDS011;50211;52.768;12.124;2023-04-25T12:58:50;2.20;;;1.00;;
64011;SDS011;50211;52.768;12.124;2023-04-25T13:01:15;3.80;;;1.20;;
64011;SDS011;50211;52.768;12.124;2023-04-25T13:03:41;3.90;;;1.63;;
64011;SDS011;50211;52.768;12.124;2023-04-25T13:06:07;1.80;;;0.77;;
64011;SDS011;50211;52.768;12.124;2023-04-25T13:08:32;4.10;;;1.30;;
64011;SDS011;50211;52.768;12.124;2023-04-25T13:10:58;3.97;;;0.80;;
64011;SDS011;50211;52.768;12.124;2023-04-25T13:13:25;2.67;;;0.60;;
64011;SDS011;50211;52.768;12.124;2023-04-25T13:15:52;1.47;;;0.67;;
64011;SDS011;50211;52.768;12.124;2023-04-25T13:18:18;2.30;;;0.60;;
64011;SDS011;50211;52.768;12.124;2023-04-25T13:20:44;4.43;;;0.63;;
64011;SDS011;50211;52.768;12.124;2023-04-25T13:23:11;0.73;;;0.63;;
64011;SDS011;50211;52.768;12.124;2023-04-25T13:25:36;3.40;;;0.60;;
64011;SDS011;50211;52.768;12.124;2023-04-25T13:28:02;5.13;;;1.27;;
64011;SDS011;50211;52.768;12.124;2023-04-25T13:30:28;2.87;;;0.70;;
64011;SDS011;50211;52.768;12.124;2023-04-25T13:32:53;2.43;;;0.63;;
64011;SDS011;50211;52.768;12.124;2023-04-25T13:35:21;3.23;;;0.80;;
64011;SDS011;50211;52.768;12.124;2023-04-25T13:37:47;4.90;;;0.90;;
64011;SDS011;50211;52.768;12.124;2023-04-25T13:40:13;8.93;;;1.27;;
64011;SDS011;50211;52.768;12.124;2023-04-25T13:42:39;1.10;;;0.70;;
64011;SDS011;50211;52.768;12.124;2023-04-25T13:45:05;1.67;;;0.60;;
64011;SDS011;50211;52.768;12.124;2023-04-25T13:47:31;1.77;;;0.50;;
64011;SDS011;50211;52.768;12.124;2023-04-25T13:49:57;1.77;;;0.70;;
64011;SDS011;50211;52.768;12.124;2023-04-25T13:52:22;3.33;;;0.90;;
64011;SDS011;50211;52.768;12.124;2023-04-25T13:54:49;2.57;;;0.67;;
64011;SDS011;50211;52.768;12.124;2023-04-25T13:57:15;4.30;;;0.93;;
64011;SDS011;50211;52.768;12.124;2023-04-25T13:59:41;1.77;;;0.50;;
64011;SDS011;50211;52.768;12.124;2023-04-25T14:02:06;2.93;;;0.60;;
64011;SDS011;50211;52.768;12.124;2023-04-25T14:04:32;5.10;;;0.77;;
64011;SDS011;50211;52.768;12.124;2023-04-25T14:06:58;1.10;;;0.60;;
64011;SDS011;50211;52.768;12.124;2023-04-25T14:09:23;4.40;;;0.73;;
64011;SDS011;50211;52.768;12.124;2023-04-25T14:11:51;0.80;;;0.53;;
64011;SDS011;50211;52.768;12.124;2023-04-25T14:14:17;5.40;;;0.90;;
64011;SDS011;50211;52.768;12.124;2023-04-25T14:16:43;2.17;;;0.80;;
64011;SDS011;50211;52.768;12.124;2023-04-25T14:19:08;1.37;;;0.60;;
64011;SDS011;50211;52.768;12.124;2023-04-25T14:21:34;1.33;;;0.83;;
64011;SDS011;50211;52.768;12.124;2023-04-25T14:24:00;2.97;;;0.80;;
64011;SDS011;50211;52.768;12.124;2023-04-25T14:26:25;1.53;;;0.60;;
64011;SDS011;50211;52.768;12.124;2023-04-25T14:28:51;5.53;;;1.00;;
64011;SDS011;50211;52.768;12.124;2023-04-25T14:31:17;3.93;;;0.70;;
64011;SDS011;50211;52.768;12.124;2023-04-25T14:33:42;3.00;;;0.80;;
64011;SDS011;50211;52.768;12.124;2023-04-25T14:36:08;3.57;;;0.67;;
64011;SDS011;50211;52.768;12.124;2023-04-25T14:38:34;1.40;;;0.77;;
64011;SDS011;50211;52.768;12.124;2023-04-25T14:40:59;1.00;;;0.50;;
64011;SDS011;50211;52.768;12.124;2023-04-25T14:43:25;1.67;;;0.93;;